sensor_id;sensor_type;location;lat;lon;timestamp;temperature;humidity
35796;DHT22;21916;52.428;13.302;2023-07-29T00:00:44;17.70;99.90
35796;DHT22;21916;52.428;13.302;2023-07-29T00:03:10;17.70;99.90
35796;DHT22;21916;52.428;13.302;2023-07-29T00:05:37;17.80;99.90
35796;DHT22;21916;52.428;13.302;2023-07-29T00:08:03;17.70;99.90
35796;DHT22;21916;52.428;13.302;2023-07-29T00:10:32;17.60;99.90
35796;DHT22;21916;52.428;13.302;2023-07-29T00:12:58;17.60;99.90
35796;DHT22;21916;52.428;13.302;2023-07-29T00:15:26;17.60;99.90
35796;DHT22;21916;52.428;13.302;2023-07-29T00:17:52;17.60;99.90
35796;DHT22;21916;52.428;13.302;2023-07-29T00:20:18;17.60;99.90
35796;DHT22;21916;52.428;13.302;2023-07-29T00:22:44;17.60;99.90
35796;DHT22;21916;52.428;13.302;2023-07-29T00:25:09;17.50;99.90
35796;DHT22;21916;52.428;13.302;2023-07-29T00:27:35;17.60;99.90
35796;DHT22;21916;52.428;13.302;2023-07-29T00:30:03;17.50;99.90
35796;DHT22;21916;52.428;13.302;2023-07-29T00:32:29;17.50;99.90
35796;DHT22;21916;52.428;13.302;2023-07-29T00:34:56;17.50;99.90
35796;DHT22;21916;52.428;13.302;2023-07-29T00:37:22;17.50;99.90
35796;DHT22;21916;52.428;13.302;2023-07-29T00:39:48;17.40;99.90
35796;DHT22;21916;52.428;13.302;2023-07-29T00:42:15;17.40;99.90
35796;DHT22;21916;52.428;13.302;2023-07-29T00:44:41;17.40;99.90
35796;DHT22;21916;52.428;13.302;2023-07-29T00:47:07;17.40;99.90
35796;DHT22;21916;52.428;13.302;2023-07-29T00:49:34;17.50;99.90
35796;DHT22;21916;52.428;13.302;2023-07-29T00:52:00;17.50;99.90
35796;DHT22;21916;52.428;13.302;2023-07-29T00:54:26;17.40;99.90
35796;DHT22;21916;52.428;13.302;2023-07-29T00:56:52;17.30;99.90
35796;DHT22;21916;52.428;13.302;2023-07-29T00:59:18;17.30;99.90
35796;DHT22;21916;52.428;13.302;2023-07-29T01:01:44;17.20;99.90
35796;DHT22;21916;52.428;13.302;2023-07-29T01:04:10;17.30;99.90
35796;DHT22;21916;52.428;13.302;2023-07-29T01:06:53;17.20;99.90
35796;DHT22;21916;52.428;13.302;2023-07-29T01:12:08;17.20;99.90
35796;DHT22;21916;52.428;13.302;2023-07-29T01:18:04;17.10;99.90
35796;DHT22;21916;52.428;13.302;2023-07-29T01:20:33;17.10;99.90
35796;DHT22;21916;52.428;13.302;2023-07-29T01:22:59;17.00;99.90
35796;DHT22;21916;52.428;13.302;2023-07-29T01:25:25;17.00;99.90
35796;DHT22;21916;52.428;13.302;2023-07-29T01:27:52;16.90;99.90
35796;DHT22;21916;52.428;13.302;2023-07-29T01:30:20;16.90;99.90
35796;DHT22;21916;52.428;13.302;2023-07-29T01:32:55;17.00;99.90
35796;DHT22;21916;52.428;13.302;2023-07-29T01:35:32;16.90;99.90
35796;DHT22;21916;52.428;13.302;2023-07-29T01:38:04;17.00;99.90
35796;DHT22;21916;52.428;13.302;2023-07-29T01:40:31;16.90;99.90
35796;DHT22;21916;52.428;13.302;2023-07-29T01:42:58;16.90;99.90
35796;DHT22;21916;52.428;13.302;2023-07-29T01:45:24;16.80;99.90
35796;DHT22;21916;52.428;13.302;2023-07-29T01:47:53;16.90;99.90
35796;DHT22;21916;52.428;13.302;2023-07-29T01:50:20;16.90;99.90
35796;DHT22;21916;52.428;13.302;2023-07-29T01:52:46;17.00;99.90
35796;DHT22;21916;52.428;13.302;2023-07-29T01:55:12;17.00;99.90
35796;DHT22;21916;52.428;13.302;2023-07-29T01:57:38;17.00;99.90
35796;DHT22;21916;52.428;13.302;2023-07-29T02:00:05;17.00;99.90
35796;DHT22;21916;52.428;13.302;2023-07-29T02:02:40;16.90;99.90
35796;DHT22;21916;52.428;13.302;2023-07-29T02:05:06;16.80;99.90
35796;DHT22;21916;52.428;13.302;2023-07-29T02:07:32;16.80;99.90
35796;DHT22;21916;52.428;13.302;2023-07-29T02:09:58;16.80;99.90
35796;DHT22;21916;52.428;13.302;2023-07-29T02:12:24;16.80;99.90
35796;DHT22;21916;52.428;13.302;2023-07-29T02:14:50;16.80;99.90
35796;DHT22;21916;52.428;13.302;2023-07-29T02:17:16;16.80;99.90
35796;DHT22;21916;52.428;13.302;2023-07-29T02:19:43;16.70;99.90
35796;DHT22;21916;52.428;13.302;2023-07-29T02:22:10;16.70;99.90
35796;DHT22;21916;52.428;13.302;2023-07-29T02:24:36;16.60;99.90
35796;DHT22;21916;52.428;13.302;2023-07-29T02:27:02;16.60;99.90
35796;DHT22;21916;52.428;13.302;2023-07-29T02:29:28;16.60;99.90
35796;DHT22;21916;52.428;13.302;2023-07-29T02:31:56;16.60;99.90
35796;DHT22;21916;52.428;13.302;2023-07-29T02:34:22;16.50;99.90
35796;DHT22;21916;52.428;13.302;2023-07-29T02:36:48;16.50;99.90
35796;DHT22;21916;52.428;13.302;2023-07-29T02:39:14;16.40;99.90
35796;DHT22;21916;52.428;13.302;2023-07-29T02:41:40;16.50;99.90
35796;DHT22;21916;52.428;13.302;2023-07-29T02:44:05;16.40;99.90
35796;DHT22;21916;52.428;13.302;2023-07-29T02:46:32;16.30;99.90
35796;DHT22;21916;52.428;13.302;2023-07-29T02:48:58;16.40;99.90
35796;DHT22;21916;52.428;13.302;2023-07-29T02:51:24;16.40;99.90
35796;DHT22;21916;52.428;13.302;2023-07-29T02:53:50;16.30;99.90
35796;DHT22;21916;52.428;13.302;2023-07-29T02:56:16;16.40;99.90
35796;DHT22;21916;52.428;13.302;2023-07-29T02:58:42;16.40;99.90
35796;DHT22;21916;52.428;13.302;2023-07-29T03:01:08;16.40;99.90
35796;DHT22;21916;52.428;13.302;2023-07-29T03:03:35;16.40;99.90
35796;DHT22;21916;52.428;13.302;2023-07-29T03:06:04;16.30;99.90
35796;DHT22;21916;52.428;13.302;2023-07-29T03:08:30;16.40;99.90
35796;DHT22;21916;52.428;13.302;2023-07-29T03:10:57;16.40;99.90
35796;DHT22;21916;52.428;13.302;2023-07-29T03:13:23;16.40;99.90
35796;DHT22;21916;52.428;13.302;2023-07-29T03:15:49;16.40;99.90
35796;DHT22;21916;52.428;13.302;2023-07-29T03:18:15;16.40;99.90
35796;DHT22;21916;52.428;13.302;2023-07-29T03:20:41;16.50;99.90
35796;DHT22;21916;52.428;13.302;2023-07-29T03:23:07;16.50;99.90
35796;DHT22;21916;52.428;13.302;2023-07-29T03:25:33;16.40;99.90
35796;DHT22;21916;52.428;13.302;2023-07-29T03:27:59;16.50;99.90
35796;DHT22;21916;52.428;13.302;2023-07-29T03:30:25;16.40;99.90
35796;DHT22;21916;52.428;13.302;2023-07-29T03:32:52;16.50;99.90
35796;DHT22;21916;52.428;13.302;2023-07-29T03:35:18;16.40;99.90
35796;DHT22;21916;52.428;13.302;2023-07-29T03:37:45;16.40;99.90
35796;DHT22;21916;52.428;13.302;2023-07-29T03:40:11;16.50;99.90
35796;DHT22;21916;52.428;13.302;2023-07-29T03:42:37;16.40;99.90
35796;DHT22;21916;52.428;13.302;2023-07-29T03:45:03;16.40;99.90
35796;DHT22;21916;52.428;13.302;2023-07-29T03:47:30;16.50;99.90
35796;DHT22;21916;52.428;13.302;2023-07-29T03:49:57;16.40;99.90
35796;DHT22;21916;52.428;13.302;2023-07-29T03:52:23;16.50;99.90
35796;DHT22;21916;52.428;13.302;2023-07-29T03:54:49;16.50;99.90
35796;DHT22;21916;52.428;13.302;2023-07-29T03:57:15;16.50;99.90
35796;DHT22;21916;52.428;13.302;2023-07-29T03:59:41;16.50;99.90
35796;DHT22;21916;52.428;13.302;2023-07-29T04:02:06;16.60;99.90
35796;DHT22;21916;52.428;13.302;2023-07-29T04:04:32;16.60;99.90
35796;DHT22;21916;52.428;13.302;2023-07-29T04:06:58;16.60;99.90
35796;DHT22;21916;52.428;13.302;2023-07-29T04:09:24;16.60;99.90
35796;DHT22;21916;52.428;13.302;2023-07-29T04:11:51;16.70;99.90
35796;DHT22;21916;52.428;13.302;2023-07-29T04:14:17;16.80;99.90
35796;DHT22;21916;52.428;13.302;2023-07-29T04:16:47;16.80;99.90
35796;DHT22;21916;52.428;13.302;2023-07-29T04:19:14;16.90;99.90
35796;DHT22;21916;52.428;13.302;2023-07-29T04:21:41;16.90;99.90
35796;DHT22;21916;52.428;13.302;2023-07-29T04:24:06;17.00;99.90
35796;DHT22;21916;52.428;13.302;2023-07-29T04:26:33;17.00;99.90
35796;DHT22;21916;52.428;13.302;2023-07-29T04:28:59;17.00;99.90
35796;DHT22;21916;52.428;13.302;2023-07-29T04:31:25;16.90;99.90
35796;DHT22;21916;52.428;13.302;2023-07-29T04:33:51;17.00;99.90
35796;DHT22;21916;52.428;13.302;2023-07-29T04:36:17;17.00;99.90
35796;DHT22;21916;52.428;13.302;2023-07-29T04:38:44;17.00;99.90
35796;DHT22;21916;52.428;13.302;2023-07-29T04:41:10;17.00;99.90
35796;DHT22;21916;52.428;13.302;2023-07-29T04:43:36;16.90;99.90
35796;DHT22;21916;52.428;13.302;2023-07-29T04:46:02;17.00;99.90
35796;DHT22;21916;52.428;13.302;2023-07-29T04:48:31;17.10;99.90
35796;DHT22;21916;52.428;13.302;2023-07-29T04:50:57;17.10;99.90
35796;DHT22;21916;52.428;13.302;2023-07-29T04:53:23;17.30;99.90
35796;DHT22;21916;52.428;13.302;2023-07-29T04:55:49;17.40;99.90
35796;DHT22;21916;52.428;13.302;2023-07-29T04:58:16;17.40;99.90
35796;DHT22;21916;52.428;13.302;2023-07-29T05:00:43;17.40;99.90
35796;DHT22;21916;52.428;13.302;2023-07-29T05:03:09;17.40;99.90
35796;DHT22;21916;52.428;13.302;2023-07-29T05:05:35;17.40;99.90
35796;DHT22;21916;52.428;13.302;2023-07-29T05:08:01;17.60;99.90
35796;DHT22;21916;52.428;13.302;2023-07-29T05:10:27;17.70;99.90
35796;DHT22;21916;52.428;13.302;2023-07-29T05:12:53;17.90;99.90
35796;DHT22;21916;52.428;13.302;2023-07-29T05:15:19;18.20;99.90
35796;DHT22;21916;52.428;13.302;2023-07-29T05:17:45;18.40;99.90
35796;DHT22;21916;52.428;13.302;2023-07-29T05:20:12;18.60;99.90
35796;DHT22;21916;52.428;13.302;2023-07-29T05:22:37;18.70;99.90
35796;DHT22;21916;52.428;13.302;2023-07-29T05:25:04;18.60;99.90
35796;DHT22;21916;52.428;13.302;2023-07-29T05:27:30;18.50;99.90
35796;DHT22;21916;52.428;13.302;2023-07-29T05:29:55;18.50;99.90
35796;DHT22;21916;52.428;13.302;2023-07-29T05:32:21;18.40;99.90
35796;DHT22;21916;52.428;13.302;2023-07-29T05:34:48;18.40;99.90
35796;DHT22;21916;52.428;13.302;2023-07-29T05:37:14;18.30;99.90
35796;DHT22;21916;52.428;13.302;2023-07-29T05:39:40;18.40;99.90
35796;DHT22;21916;52.428;13.302;2023-07-29T05:42:07;18.60;99.90
35796;DHT22;21916;52.428;13.302;2023-07-29T05:44:33;18.60;99.90
35796;DHT22;21916;52.428;13.302;2023-07-29T05:46:59;18.70;99.90
35796;DHT22;21916;52.428;13.302;2023-07-29T05:49:25;18.80;99.90
35796;DHT22;21916;52.428;13.302;2023-07-29T05:51:51;18.90;99.90
35796;DHT22;21916;52.428;13.302;2023-07-29T05:54:18;19.10;99.90
35796;DHT22;21916;52.428;13.302;2023-07-29T05:56:44;19.20;99.90
35796;DHT22;21916;52.428;13.302;2023-07-29T05:59:10;19.30;99.90
35796;DHT22;21916;52.428;13.302;2023-07-29T06:01:36;19.30;99.90
35796;DHT22;21916;52.428;13.302;2023-07-29T06:04:02;19.40;99.90
35796;DHT22;21916;52.428;13.302;2023-07-29T06:06:28;19.40;99.90
35796;DHT22;21916;52.428;13.302;2023-07-29T06:08:54;19.50;99.90
35796;DHT22;21916;52.428;13.302;2023-07-29T06:11:20;19.50;99.90
35796;DHT22;21916;52.428;13.302;2023-07-29T06:13:47;19.60;99.90
35796;DHT22;21916;52.428;13.302;2023-07-29T06:16:14;19.70;99.90
35796;DHT22;21916;52.428;13.302;2023-07-29T06:18:41;19.80;99.90
35796;DHT22;21916;52.428;13.302;2023-07-29T06:21:07;20.00;99.90
35796;DHT22;21916;52.428;13.302;2023-07-29T06:23:34;20.10;99.90
35796;DHT22;21916;52.428;13.302;2023-07-29T06:26:00;20.20;99.90
35796;DHT22;21916;52.428;13.302;2023-07-29T06:28:28;20.30;99.90
35796;DHT22;21916;52.428;13.302;2023-07-29T06:30:54;20.40;99.90
35796;DHT22;21916;52.428;13.302;2023-07-29T06:33:20;20.40;99.90
35796;DHT22;21916;52.428;13.302;2023-07-29T06:35:46;20.60;99.90
35796;DHT22;21916;52.428;13.302;2023-07-29T06:38:12;20.60;99.90
35796;DHT22;21916;52.428;13.302;2023-07-29T06:40:38;20.80;99.90
35796;DHT22;21916;52.428;13.302;2023-07-29T06:43:04;20.80;99.90
35796;DHT22;21916;52.428;13.302;2023-07-29T06:45:30;20.90;99.90
35796;DHT22;21916;52.428;13.302;2023-07-29T06:47:56;20.90;99.90
35796;DHT22;21916;52.428;13.302;2023-07-29T06:50:21;20.90;99.90
35796;DHT22;21916;52.428;13.302;2023-07-29T06:52:47;21.00;99.90
35796;DHT22;21916;52.428;13.302;2023-07-29T06:55:13;21.10;99.90
35796;DHT22;21916;52.428;13.302;2023-07-29T06:57:39;21.20;99.90
35796;DHT22;21916;52.428;13.302;2023-07-29T07:00:06;21.30;99.90
35796;DHT22;21916;52.428;13.302;2023-07-29T07:02:32;21.30;99.90
35796;DHT22;21916;52.428;13.302;2023-07-29T07:04:58;21.20;99.90
35796;DHT22;21916;52.428;13.302;2023-07-29T07:07:23;21.30;99.90
35796;DHT22;21916;52.428;13.302;2023-07-29T07:09:49;21.40;99.90
35796;DHT22;21916;52.428;13.302;2023-07-29T07:12:15;21.40;99.90
35796;DHT22;21916;52.428;13.302;2023-07-29T07:14:41;21.50;99.90
35796;DHT22;21916;52.428;13.302;2023-07-29T07:17:07;21.60;99.90
35796;DHT22;21916;52.428;13.302;2023-07-29T07:19:33;21.60;99.90
35796;DHT22;21916;52.428;13.302;2023-07-29T07:21:59;21.60;99.90
35796;DHT22;21916;52.428;13.302;2023-07-29T07:24:24;21.70;99.90
35796;DHT22;21916;52.428;13.302;2023-07-29T07:26:50;21.80;99.90
35796;DHT22;21916;52.428;13.302;2023-07-29T07:29:16;21.80;99.90
35796;DHT22;21916;52.428;13.302;2023-07-29T07:31:52;21.80;99.90
35796;DHT22;21916;52.428;13.302;2023-07-29T07:34:20;21.80;99.90
35796;DHT22;21916;52.428;13.302;2023-07-29T07:36:46;22.00;99.90
35796;DHT22;21916;52.428;13.302;2023-07-29T07:39:12;22.10;99.90
35796;DHT22;21916;52.428;13.302;2023-07-29T07:41:38;22.10;99.90
35796;DHT22;21916;52.428;13.302;2023-07-29T07:44:06;22.20;99.90
35796;DHT22;21916;52.428;13.302;2023-07-29T07:46:31;22.30;99.90
35796;DHT22;21916;52.428;13.302;2023-07-29T07:48:57;22.40;99.90
35796;DHT22;21916;52.428;13.302;2023-07-29T07:51:23;22.60;99.90
35796;DHT22;21916;52.428;13.302;2023-07-29T07:53:49;22.80;99.90
35796;DHT22;21916;52.428;13.302;2023-07-29T07:56:15;23.10;99.90
35796;DHT22;21916;52.428;13.302;2023-07-29T07:58:41;23.20;99.90
35796;DHT22;21916;52.428;13.302;2023-07-29T08:01:09;23.20;99.90
35796;DHT22;21916;52.428;13.302;2023-07-29T08:03:35;23.20;99.90
35796;DHT22;21916;52.428;13.302;2023-07-29T08:06:02;23.20;99.90
35796;DHT22;21916;52.428;13.302;2023-07-29T08:08:28;23.20;99.90
35796;DHT22;21916;52.428;13.302;2023-07-29T08:10:55;23.30;99.90
35796;DHT22;21916;52.428;13.302;2023-07-29T08:13:22;23.30;99.90
35796;DHT22;21916;52.428;13.302;2023-07-29T08:15:50;23.60;99.90
35796;DHT22;21916;52.428;13.302;2023-07-29T08:18:17;23.70;99.90
35796;DHT22;21916;52.428;13.302;2023-07-29T08:20:57;23.80;99.90
35796;DHT22;21916;52.428;13.302;2023-07-29T08:23:33;24.00;99.90
35796;DHT22;21916;52.428;13.302;2023-07-29T08:26:02;24.10;99.90
35796;DHT22;21916;52.428;13.302;2023-07-29T08:28:32;24.50;99.90
35796;DHT22;21916;52.428;13.302;2023-07-29T08:30:59;24.70;99.90
35796;DHT22;21916;52.428;13.302;2023-07-29T08:33:25;24.70;99.90
35796;DHT22;21916;52.428;13.302;2023-07-29T08:35:51;24.60;99.90
35796;DHT22;21916;52.428;13.302;2023-07-29T08:38:17;24.40;99.90
35796;DHT22;21916;52.428;13.302;2023-07-29T08:43:39;24.30;99.90
35796;DHT22;21916;52.428;13.302;2023-07-29T08:46:06;24.50;99.90
35796;DHT22;21916;52.428;13.302;2023-07-29T08:48:39;24.30;99.90
35796;DHT22;21916;52.428;13.302;2023-07-29T08:51:08;24.30;99.90
35796;DHT22;21916;52.428;13.302;2023-07-29T08:53:35;24.50;99.90
35796;DHT22;21916;52.428;13.302;2023-07-29T08:56:01;24.70;99.90
35796;DHT22;21916;52.428;13.302;2023-07-29T08:58:28;24.90;99.90
35796;DHT22;21916;52.428;13.302;2023-07-29T09:00:54;24.80;99.90
35796;DHT22;21916;52.428;13.302;2023-07-29T09:03:21;24.70;99.90
35796;DHT22;21916;52.428;13.302;2023-07-29T09:05:47;24.70;99.90
35796;DHT22;21916;52.428;13.302;2023-07-29T09:08:14;25.10;99.90
35796;DHT22;21916;52.428;13.302;2023-07-29T09:10:40;25.40;99.90
35796;DHT22;21916;52.428;13.302;2023-07-29T09:13:07;25.40;99.90
35796;DHT22;21916;52.428;13.302;2023-07-29T09:15:36;25.30;99.90
35796;DHT22;21916;52.428;13.302;2023-07-29T09:18:16;25.50;99.90
35796;DHT22;21916;52.428;13.302;2023-07-29T09:20:42;25.70;99.90
35796;DHT22;21916;52.428;13.302;2023-07-29T09:23:09;25.50;99.90
35796;DHT22;21916;52.428;13.302;2023-07-29T09:25:39;25.40;99.90
35796;DHT22;21916;52.428;13.302;2023-07-29T09:28:10;25.60;99.90
35796;DHT22;21916;52.428;13.302;2023-07-29T09:30:38;25.50;99.90
35796;DHT22;21916;52.428;13.302;2023-07-29T09:33:04;25.40;99.90
35796;DHT22;21916;52.428;13.302;2023-07-29T09:35:32;25.50;99.90
35796;DHT22;21916;52.428;13.302;2023-07-29T09:37:58;25.50;99.90
35796;DHT22;21916;52.428;13.302;2023-07-29T09:40:25;25.50;99.90
35796;DHT22;21916;52.428;13.302;2023-07-29T09:42:55;25.40;99.90
35796;DHT22;21916;52.428;13.302;2023-07-29T09:45:25;25.60;99.90
35796;DHT22;21916;52.428;13.302;2023-07-29T09:47:55;25.40;99.90
35796;DHT22;21916;52.428;13.302;2023-07-29T09:50:26;25.50;99.90
35796;DHT22;21916;52.428;13.302;2023-07-29T09:52:54;25.70;99.90
35796;DHT22;21916;52.428;13.302;2023-07-29T09:55:22;25.90;99.90
35796;DHT22;21916;52.428;13.302;2023-07-29T09:57:58;25.80;99.90
35796;DHT22;21916;52.428;13.302;2023-07-29T10:00:30;26.30;99.90
35796;DHT22;21916;52.428;13.302;2023-07-29T10:02:58;26.70;99.90
35796;DHT22;21916;52.428;13.302;2023-07-29T10:05:26;26.70;99.90
35796;DHT22;21916;52.428;13.302;2023-07-29T10:07:54;26.60;99.90
35796;DHT22;21916;52.428;13.302;2023-07-29T10:10:20;26.60;99.90
35796;DHT22;21916;52.428;13.302;2023-07-29T10:12:47;26.40;99.90
35796;DHT22;21916;52.428;13.302;2023-07-29T10:15:13;26.00;99.90
35796;DHT22;21916;52.428;13.302;2023-07-29T10:17:40;25.90;99.90
35796;DHT22;21916;52.428;13.302;2023-07-29T10:20:08;26.00;99.90
35796;DHT22;21916;52.428;13.302;2023-07-29T10:22:42;26.00;99.90
35796;DHT22;21916;52.428;13.302;2023-07-29T10:25:13;25.90;99.90
35796;DHT22;21916;52.428;13.302;2023-07-29T10:27:56;25.90;99.90
35796;DHT22;21916;52.428;13.302;2023-07-29T10:30:24;25.90;99.90
35796;DHT22;21916;52.428;13.302;2023-07-29T10:32:52;26.20;99.90
35796;DHT22;21916;52.428;13.302;2023-07-29T10:35:18;26.50;99.90
35796;DHT22;21916;52.428;13.302;2023-07-29T10:37:46;26.50;99.90
35796;DHT22;21916;52.428;13.302;2023-07-29T10:40:16;26.20;99.90
35796;DHT22;21916;52.428;13.302;2023-07-29T10:43:09;26.00;99.90
35796;DHT22;21916;52.428;13.302;2023-07-29T10:45:39;26.10;99.90
35796;DHT22;21916;52.428;13.302;2023-07-29T10:48:39;26.20;99.90
35796;DHT22;21916;52.428;13.302;2023-07-29T10:51:35;26.10;99.90
35796;DHT22;21916;52.428;13.302;2023-07-29T10:54:09;26.00;99.90
35796;DHT22;21916;52.428;13.302;2023-07-29T10:56:41;25.70;99.90
35796;DHT22;21916;52.428;13.302;2023-07-29T11:01:50;25.20;99.90
35796;DHT22;21916;52.428;13.302;2023-07-29T11:04:25;24.90;99.90
35796;DHT22;21916;52.428;13.302;2023-07-29T11:07:18;24.10;99.90
35796;DHT22;21916;52.428;13.302;2023-07-29T11:15:27;20.30;99.90
35796;DHT22;21916;52.428;13.302;2023-07-29T11:17:58;19.80;99.90
35796;DHT22;21916;52.428;13.302;2023-07-29T11:20:26;19.60;99.90
35796;DHT22;21916;52.428;13.302;2023-07-29T11:23:00;19.60;99.90
35796;DHT22;21916;52.428;13.302;2023-07-29T11:25:28;19.80;99.90
35796;DHT22;21916;52.428;13.302;2023-07-29T11:27:56;20.00;99.90
35796;DHT22;21916;52.428;13.302;2023-07-29T11:30:22;20.30;99.90
35796;DHT22;21916;52.428;13.302;2023-07-29T11:32:57;20.50;99.90
35796;DHT22;21916;52.428;13.302;2023-07-29T11:35:24;20.80;99.90
35796;DHT22;21916;52.428;13.302;2023-07-29T11:37:55;20.80;99.90
35796;DHT22;21916;52.428;13.302;2023-07-29T11:40:24;21.00;99.90
35796;DHT22;21916;52.428;13.302;2023-07-29T11:42:52;21.10;99.90
35796;DHT22;21916;52.428;13.302;2023-07-29T11:45:20;21.10;99.90
35796;DHT22;21916;52.428;13.302;2023-07-29T11:47:46;21.30;99.90
35796;DHT22;21916;52.428;13.302;2023-07-29T11:50:14;21.20;99.90
35796;DHT22;21916;52.428;13.302;2023-07-29T11:52:42;21.20;99.90
35796;DHT22;21916;52.428;13.302;2023-07-29T11:55:09;21.30;99.90
35796;DHT22;21916;52.428;13.302;2023-07-29T11:57:37;21.20;99.90
35796;DHT22;21916;52.428;13.302;2023-07-29T12:00:07;21.50;99.90
35796;DHT22;21916;52.428;13.302;2023-07-29T12:02:37;21.50;99.90
35796;DHT22;21916;52.428;13.302;2023-07-29T12:05:07;21.60;99.90
35796;DHT22;21916;52.428;13.302;2023-07-29T12:07:34;21.70;99.90
35796;DHT22;21916;52.428;13.302;2023-07-29T12:10:02;21.70;99.90
35796;DHT22;21916;52.428;13.302;2023-07-29T12:12:29;21.80;99.90
35796;DHT22;21916;52.428;13.302;2023-07-29T12:14:56;21.40;99.90
35796;DHT22;21916;52.428;13.302;2023-07-29T12:17:21;21.30;99.90
35796;DHT22;21916;52.428;13.302;2023-07-29T12:19:47;21.20;99.90
35796;DHT22;21916;52.428;13.302;2023-07-29T12:22:19;21.10;99.90
35796;DHT22;21916;52.428;13.302;2023-07-29T12:24:45;21.00;99.90
35796;DHT22;21916;52.428;13.302;2023-07-29T12:27:14;21.00;99.90
35796;DHT22;21916;52.428;13.302;2023-07-29T12:29:44;21.00;99.90
35796;DHT22;21916;52.428;13.302;2023-07-29T12:32:12;21.00;99.90
35796;DHT22;21916;52.428;13.302;2023-07-29T12:34:39;21.10;99.90
35796;DHT22;21916;52.428;13.302;2023-07-29T12:37:06;21.40;99.90
35796;DHT22;21916;52.428;13.302;2023-07-29T12:39:34;21.70;99.90
35796;DHT22;21916;52.428;13.302;2023-07-29T12:42:02;22.00;99.90
35796;DHT22;21916;52.428;13.302;2023-07-29T12:44:34;22.30;99.90
35796;DHT22;21916;52.428;13.302;2023-07-29T12:47:02;23.00;99.90
35796;DHT22;21916;52.428;13.302;2023-07-29T12:49:29;23.00;99.90
35796;DHT22;21916;52.428;13.302;2023-07-29T12:51:56;22.80;99.90
35796;DHT22;21916;52.428;13.302;2023-07-29T12:54:22;23.00;99.90
35796;DHT22;21916;52.428;13.302;2023-07-29T12:56:48;22.70;99.90
35796;DHT22;21916;52.428;13.302;2023-07-29T12:59:14;22.70;99.90
35796;DHT22;21916;52.428;13.302;2023-07-29T13:01:40;23.40;99.90
35796;DHT22;21916;52.428;13.302;2023-07-29T13:04:06;23.90;99.90
35796;DHT22;21916;52.428;13.302;2023-07-29T13:06:32;23.70;99.90
35796;DHT22;21916;52.428;13.302;2023-07-29T13:08:58;24.30;99.90
35796;DHT22;21916;52.428;13.302;2023-07-29T13:11:24;24.90;99.90
35796;DHT22;21916;52.428;13.302;2023-07-29T13:13:50;24.80;99.90
35796;DHT22;21916;52.428;13.302;2023-07-29T13:16:16;24.80;99.90
35796;DHT22;21916;52.428;13.302;2023-07-29T13:18:43;24.60;99.90
35796;DHT22;21916;52.428;13.302;2023-07-29T13:21:09;24.40;99.90
35796;DHT22;21916;52.428;13.302;2023-07-29T13:23:35;24.50;99.90
35796;DHT22;21916;52.428;13.302;2023-07-29T13:26:01;25.10;99.90
35796;DHT22;21916;52.428;13.302;2023-07-29T13:28:27;26.90;99.90
35796;DHT22;21916;52.428;13.302;2023-07-29T13:30:54;27.80;99.90
35796;DHT22;21916;52.428;13.302;2023-07-29T13:33:20;29.10;99.90
35796;DHT22;21916;52.428;13.302;2023-07-29T13:35:46;29.90;99.90
35796;DHT22;21916;52.428;13.302;2023-07-29T13:38:12;30.70;99.90
35796;DHT22;21916;52.428;13.302;2023-07-29T13:40:38;31.30;99.90
35796;DHT22;21916;52.428;13.302;2023-07-29T13:43:04;31.20;99.90
35796;DHT22;21916;52.428;13.302;2023-07-29T13:45:29;30.30;99.90
35796;DHT22;21916;52.428;13.302;2023-07-29T13:47:55;30.20;99.90
35796;DHT22;21916;52.428;13.302;2023-07-29T13:50:21;30.70;99.90
35796;DHT22;21916;52.428;13.302;2023-07-29T13:52:48;30.30;99.90
35796;DHT22;21916;52.428;13.302;2023-07-29T13:55:14;29.20;99.90
35796;DHT22;21916;52.428;13.302;2023-07-29T13:57:40;28.40;99.90
35796;DHT22;21916;52.428;13.302;2023-07-29T14:00:07;27.60;99.90
35796;DHT22;21916;52.428;13.302;2023-07-29T14:02:40;27.30;99.90
35796;DHT22;21916;52.428;13.302;2023-07-29T14:05:06;27.50;99.90
35796;DHT22;21916;52.428;13.302;2023-07-29T14:07:33;27.90;99.90
35796;DHT22;21916;52.428;13.302;2023-07-29T14:09:59;28.10;99.90
35796;DHT22;21916;52.428;13.302;2023-07-29T14:12:24;27.50;99.90
35796;DHT22;21916;52.428;13.302;2023-07-29T14:14:50;27.50;99.90
35796;DHT22;21916;52.428;13.302;2023-07-29T14:17:16;27.90;99.90
35796;DHT22;21916;52.428;13.302;2023-07-29T14:19:43;29.00;99.90
35796;DHT22;21916;52.428;13.302;2023-07-29T14:22:09;29.90;99.90
35796;DHT22;21916;52.428;13.302;2023-07-29T14:24:35;30.20;99.90
35796;DHT22;21916;52.428;13.302;2023-07-29T14:27:00;29.70;99.90
35796;DHT22;21916;52.428;13.302;2023-07-29T14:29:28;29.20;99.90
35796;DHT22;21916;52.428;13.302;2023-07-29T14:31:54;29.10;99.90
35796;DHT22;21916;52.428;13.302;2023-07-29T14:34:21;29.60;99.90
35796;DHT22;21916;52.428;13.302;2023-07-29T14:36:47;30.00;99.90
35796;DHT22;21916;52.428;13.302;2023-07-29T14:39:13;29.20;99.90
35796;DHT22;21916;52.428;13.302;2023-07-29T14:41:39;28.10;99.90
35796;DHT22;21916;52.428;13.302;2023-07-29T14:44:05;27.40;99.90
35796;DHT22;21916;52.428;13.302;2023-07-29T14:46:31;26.60;99.90
35796;DHT22;21916;52.428;13.302;2023-07-29T14:48:56;25.90;99.90
35796;DHT22;21916;52.428;13.302;2023-07-29T14:51:22;25.60;99.90
35796;DHT22;21916;52.428;13.302;2023-07-29T14:53:48;25.40;99.90
35796;DHT22;21916;52.428;13.302;2023-07-29T14:56:14;25.00;99.90
35796;DHT22;21916;52.428;13.302;2023-07-29T14:58:44;24.60;99.90
35796;DHT22;21916;52.428;13.302;2023-07-29T15:01:10;24.30;99.90
35796;DHT22;21916;52.428;13.302;2023-07-29T15:03:36;24.10;99.90
35796;DHT22;21916;52.428;13.302;2023-07-29T15:06:02;24.00;99.90
35796;DHT22;21916;52.428;13.302;2023-07-29T15:08:28;23.90;99.90
35796;DHT22;21916;52.428;13.302;2023-07-29T15:10:54;24.00;99.90
35796;DHT22;21916;52.428;13.302;2023-07-29T15:13:20;24.10;99.90
35796;DHT22;21916;52.428;13.302;2023-07-29T15:15:46;24.30;99.90
35796;DHT22;21916;52.428;13.302;2023-07-29T15:18:15;24.10;99.90
35796;DHT22;21916;52.428;13.302;2023-07-29T15:20:41;24.20;99.90
35796;DHT22;21916;52.428;13.302;2023-07-29T15:23:07;24.10;99.90
35796;DHT22;21916;52.428;13.302;2023-07-29T15:25:33;23.90;99.90
35796;DHT22;21916;52.428;13.302;2023-07-29T15:27:59;23.90;99.90
35796;DHT22;21916;52.428;13.302;2023-07-29T15:30:25;23.90;99.90
35796;DHT22;21916;52.428;13.302;2023-07-29T15:32:52;23.60;99.90